Time;durP1;ratioP1;P1;durP2;ratioP2;P2;SDS_P1;SDS_P2;PMS_P1;PMS_P2;Temp;Humidity;BMP_temperature;BMP_pressure;BME280_temperature;BME280_humidity;BME280_pressure;Samples;Min_cycle;Max_cycle;Signal;HPM_P1;HPM_P2
2022/04/11 00:01:23;;;;;;;7.07;6.20;;;1.80;99.90;;;;;;5017368;28;20446;-73
2022/04/11 00:03:50;;;;;;;9.20;5.80;;;1.80;99.90;;;;;;5010573;28;20520;-70
2022/04/11 00:06:17;;;;;;;7.27;5.77;;;1.80;99.90;;;;;;5010907;28;20454;-70
2022/04/11 00:08:45;;;;;;;7.67;5.83;;;1.70;99.90;;;;;;5028924;28;20492;-70
2022/04/11 00:11:12;;;;;;;9.30;6.13;;;1.70;99.90;;;;;;5029304;28;20867;-70
2022/04/11 00:13:38;;;;;;;7.43;6.43;;;1.70;99.90;;;;;;5026687;28;20454;-70
2022/04/11 00:16:07;;;;;;;7.70;6.30;;;1.60;99.90;;;;;;5010582;28;20454;-70
2022/04/11 00:18:33;;;;;;;7.17;6.13;;;1.60;99.90;;;;;;5029549;28;20552;-70
2022/04/11 00:21:00;;;;;;;9.93;6.83;;;1.50;99.90;;;;;;5030137;28;20457;-70
2022/04/11 00:23:27;;;;;;;10.50;6.13;;;1.50;99.90;;;;;;5030213;28;20500;-70
2022/04/11 00:25:55;;;;;;;8.80;5.97;;;1.50;99.90;;;;;;5026809;28;20450;-70
2022/04/11 00:28:21;;;;;;;7.13;5.60;;;1.50;99.90;;;;;;5023057;28;20493;-70
2022/04/11 00:30:48;;;;;;;8.47;7.03;;;1.50;99.90;;;;;;5028385;28;20461;-71
2022/04/11 00:33:15;;;;;;;9.40;6.20;;;1.50;99.90;;;;;;5022031;28;20900;-70
2022/04/11 00:35:41;;;;;;;11.90;6.83;;;1.50;99.90;;;;;;5019411;28;20454;-70
2022/04/11 00:38:08;;;;;;;8.30;5.90;;;1.50;99.90;;;;;;5010274;28;20446;-70
2022/04/11 00:40:34;;;;;;;8.43;6.47;;;1.60;99.90;;;;;;5024780;28;20511;-70
2022/04/11 00:43:02;;;;;;;7.23;6.27;;;1.60;99.90;;;;;;5030080;28;20449;-70
2022/04/11 00:45:29;;;;;;;8.80;6.57;;;1.60;99.90;;;;;;5032329;28;20860;-70
2022/04/11 00:47:56;;;;;;;6.60;6.00;;;1.60;99.90;;;;;;5029762;28;20489;-70
2022/04/11 00:50:23;;;;;;;15.23;6.63;;;1.60;99.90;;;;;;5032815;28;20535;-70
2022/04/11 00:52:53;;;;;;;9.40;6.90;;;1.60;99.90;;;;;;5033458;28;20453;-70
2022/04/11 00:55:22;;;;;;;9.13;6.73;;;1.70;99.90;;;;;;5031976;28;20453;-70
2022/04/11 00:57:49;;;;;;;9.73;6.30;;;1.70;99.90;;;;;;5032361;28;20462;-70
2022/04/11 01:00:19;;;;;;;11.07;6.13;;;1.70;99.90;;;;;;5032621;28;20527;-70
2022/04/11 01:02:45;;;;;;;8.07;5.80;;;1.70;99.90;;;;;;5029185;28;20465;-70
2022/04/11 01:05:13;;;;;;;6.63;5.20;;;1.70;99.90;;;;;;5032889;28;20519;-70
2022/04/11 01:07:40;;;;;;;6.70;5.10;;;1.70;99.90;;;;;;5030328;28;20504;-70
2022/04/11 01:10:09;;;;;;;5.80;4.60;;;1.70;99.90;;;;;;5019549;28;20486;-70
2022/04/11 01:12:35;;;;;;;9.33;4.73;;;1.70;99.90;;;;;;5028894;28;20460;-70
2022/04/11 01:15:02;;;;;;;11.03;4.93;;;1.70;99.90;;;;;;5032920;28;20518;-70
2022/04/11 01:17:34;;;;;;;6.57;5.10;;;1.70;99.90;;;;;;5031344;28;20507;-70
2022/04/11 01:20:06;;;;;;;6.87;4.93;;;1.70;99.90;;;;;;5032316;28;20496;-70
2022/04/11 01:22:34;;;;;;;9.70;5.13;;;1.70;99.90;;;;;;5024148;28;20454;-70
2022/04/11 01:25:02;;;;;;;5.83;5.07;;;1.70;99.90;;;;;;5020854;28;20511;-70
2022/04/11 01:27:30;;;;;;;9.70;5.33;;;1.90;99.90;;;;;;5019148;28;20872;-70
2022/04/11 01:29:57;;;;;;;6.67;5.97;;;1.90;99.90;;;;;;5027260;28;21032;-70
2022/04/11 01:32:24;;;;;;;8.23;6.40;;;1.80;99.90;;;;;;5032746;28;20516;-70
2022/04/11 01:34:50;;;;;;;15.43;6.77;;;1.80;99.90;;;;;;5013657;28;20454;-70
2022/04/11 01:37:17;;;;;;;13.03;6.57;;;1.80;99.90;;;;;;5032537;28;20461;-70
2022/04/11 01:39:45;;;;;;;12.70;7.43;;;1.80;99.90;;;;;;5031660;28;20913;-70
2022/04/11 01:42:11;;;;;;;9.93;6.87;;;1.70;99.90;;;;;;5020056;28;20481;-70
2022/04/11 01:44:38;;;;;;;10.70;7.17;;;1.70;99.90;;;;;;5012481;28;20516;-70
2022/04/11 01:47:05;;;;;;;10.83;6.43;;;1.80;99.90;;;;;;5012505;28;20454;-70
2022/04/11 01:49:31;;;;;;;8.50;6.50;;;1.80;99.90;;;;;;5024645;28;20485;-70
2022/04/11 01:51:58;;;;;;;10.47;7.23;;;1.80;99.90;;;;;;5013766;28;20470;-70
2022/04/11 01:54:25;;;;;;;22.80;8.30;;;1.80;99.90;;;;;;5011709;28;20446;-70
2022/04/11 01:56:53;;;;;;;13.93;7.73;;;1.80;99.90;;;;;;5017353;28;20452;-70
2022/04/11 01:59:19;;;;;;;12.20;7.13;;;1.80;99.90;;;;;;5012139;28;20470;-70
2022/04/11 02:01:46;;;;;;;10.37;7.50;;;1.80;99.90;;;;;;5012176;28;20508;-70
2022/04/11 02:04:13;;;;;;;8.87;6.77;;;1.80;99.90;;;;;;5023200;28;20469;-70
2022/04/11 02:06:40;;;;;;;14.03;7.20;;;1.80;99.90;;;;;;5015189;28;20451;-70
2022/04/11 02:09:06;;;;;;;9.50;6.13;;;1.80;99.90;;;;;;5024164;28;20989;-70
2022/04/11 02:11:33;;;;;;;8.17;7.23;;;1.80;99.90;;;;;;5018283;28;20533;-70
2022/04/11 02:14:01;;;;;;;18.83;8.87;;;1.80;99.90;;;;;;5012025;28;20607;-70
2022/04/11 02:16:27;;;;;;;11.10;7.00;;;1.90;99.90;;;;;;5011862;28;20458;-70
2022/04/11 02:18:54;;;;;;;12.03;7.53;;;1.90;99.90;;;;;;5011786;28;20474;-69
2022/04/11 02:21:21;;;;;;;16.20;6.77;;;1.80;99.90;;;;;;5012212;28;20458;-70
2022/04/11 02:23:47;;;;;;;12.63;7.00;;;1.90;99.90;;;;;;5011876;28;20512;-70
2022/04/11 02:26:14;;;;;;;13.97;8.07;;;1.80;99.90;;;;;;5017928;28;20456;-70
2022/04/11 02:28:40;;;;;;;13.83;6.60;;;1.80;99.90;;;;;;5021723;28;20855;-70
2022/04/11 02:31:08;;;;;;;8.37;6.80;;;1.90;99.90;;;;;;5011286;28;20455;-70
2022/04/11 02:33:35;;;;;;;8.23;6.33;;;1.90;99.90;;;;;;5011650;28;20513;-70
2022/04/11 02:36:02;;;;;;;12.40;6.40;;;1.90;99.90;;;;;;5022514;28;20503;-70
2022/04/11 02:38:29;;;;;;;7.27;6.37;;;1.90;99.90;;;;;;5031309;28;20465;-71
2022/04/11 02:40:55;;;;;;;9.20;6.07;;;1.90;99.90;;;;;;5029697;28;20453;-70
2022/04/11 02:43:22;;;;;;;8.27;6.10;;;1.90;99.90;;;;;;5031135;28;20453;-71
2022/04/11 02:45:49;;;;;;;7.80;6.40;;;1.80;99.90;;;;;;5030187;28;20799;-70
2022/04/11 02:48:17;;;;;;;8.50;5.60;;;1.80;99.90;;;;;;5013551;28;20469;-70
2022/04/11 02:50:43;;;;;;;12.63;5.80;;;1.90;99.90;;;;;;5019196;28;21165;-70
2022/04/11 02:53:10;;;;;;;9.73;5.73;;;1.90;99.90;;;;;;5011350;28;20445;-70
2022/04/11 02:55:37;;;;;;;8.43;6.47;;;1.80;99.90;;;;;;5011472;28;20843;-70
2022/04/11 02:58:03;;;;;;;8.50;7.27;;;1.80;99.90;;;;;;5013789;28;20505;-70
2022/04/11 03:00:30;;;;;;;10.07;6.80;;;1.80;99.90;;;;;;5021032;28;20504;-70
2022/04/11 03:02:57;;;;;;;9.00;7.00;;;1.80;99.90;;;;;;5030061;28;20466;-70
2022/04/11 03:05:25;;;;;;;9.90;7.10;;;1.80;99.90;;;;;;5030411;28;21019;-70
2022/04/11 03:07:52;;;;;;;12.17;7.50;;;1.80;99.90;;;;;;5023593;28;20501;-70
2022/04/11 03:10:19;;;;;;;10.20;6.77;;;1.80;99.90;;;;;;5022112;28;20502;-70
2022/04/11 03:12:46;;;;;;;11.70;6.87;;;1.80;99.90;;;;;;5010793;28;20463;-70
2022/04/11 03:15:12;;;;;;;9.63;7.20;;;1.80;99.90;;;;;;5011827;28;20955;-70
2022/04/11 03:17:39;;;;;;;7.43;6.63;;;1.80;99.90;;;;;;5011196;28;20458;-70
2022/04/11 03:20:06;;;;;;;7.47;6.50;;;1.80;99.90;;;;;;5011075;28;20470;-71
2022/04/11 03:22:34;;;;;;;10.90;7.00;;;1.80;99.90;;;;;;5025113;28;20876;-70
2022/04/11 03:25:01;;;;;;;12.83;7.53;;;1.80;99.90;;;;;;5012348;28;20823;-70
2022/04/11 03:27:27;;;;;;;11.20;7.80;;;1.80;99.90;;;;;;5019435;28;20509;-70
2022/04/11 03:29:54;;;;;;;9.80;6.90;;;1.80;99.90;;;;;;5015673;28;20529;-70
2022/04/11 03:32:21;;;;;;;9.23;7.20;;;1.80;99.90;;;;;;5010636;28;20947;-70
2022/04/11 03:34:49;;;;;;;11.10;6.83;;;1.70;99.90;;;;;;5010813;28;20490;-70
2022/04/11 03:37:16;;;;;;;10.87;7.70;;;1.70;99.90;;;;;;5011779;28;20458;-70
2022/04/11 03:39:44;;;;;;;8.60;7.03;;;1.70;99.90;;;;;;5010856;28;21143;-70
2022/04/11 03:42:11;;;;;;;8.10;6.53;;;1.70;99.90;;;;;;5027186;28;20453;-70
2022/04/11 03:44:37;;;;;;;9.33;7.03;;;1.80;99.90;;;;;;5022822;28;20482;-69
2022/04/11 03:47:05;;;;;;;9.27;7.00;;;1.80;99.90;;;;;;5010640;28;20454;-70
2022/04/11 03:49:31;;;;;;;9.57;6.97;;;1.70;99.90;;;;;;5017944;28;20931;-70
2022/04/11 03:51:59;;;;;;;8.30;7.13;;;1.60;99.90;;;;;;5025919;28;20449;-70
2022/04/11 03:54:25;;;;;;;8.43;7.20;;;1.60;99.90;;;;;;5030402;28;20540;-70
2022/04/11 03:56:53;;;;;;;10.83;7.33;;;1.50;99.90;;;;;;5023699;28;20466;-70
2022/04/11 03:59:20;;;;;;;11.10;8.40;;;1.40;99.90;;;;;;5011821;28;20516;-70
2022/04/11 04:01:46;;;;;;;10.40;7.40;;;1.40;99.90;;;;;;5010658;28;20488;-70
2022/04/11 04:04:13;;;;;;;9.83;6.80;;;1.50;99.90;;;;;;5026312;28;20466;-70
2022/04/11 04:06:40;;;;;;;11.70;7.27;;;1.50;99.90;;;;;;5025853;28;20485;-70
2022/04/11 04:09:07;;;;;;;7.03;5.67;;;1.50;99.90;;;;;;5015001;28;20852;-70
2022/04/11 04:11:34;;;;;;;5.40;4.47;;;1.50;99.90;;;;;;5008852;28;20523;-73
2022/04/11 04:14:02;;;;;;;8.93;4.87;;;1.50;99.90;;;;;;5012365;28;20496;-70
2022/04/11 04:16:28;;;;;;;6.80;4.40;;;1.40;99.90;;;;;;5009553;28;20996;-71
2022/04/11 04:18:55;;;;;;;8.70;4.33;;;1.40;99.90;;;;;;5033477;28;20472;-71
2022/04/11 04:21:22;;;;;;;5.97;4.00;;;1.40;99.90;;;;;;5047092;28;20474;-73
2022/04/11 04:23:48;;;;;;;5.20;4.10;;;1.30;99.90;;;;;;5028228;28;20450;-73
2022/04/11 04:26:15;;;;;;;6.30;4.80;;;1.30;99.90;;;;;;5020769;28;20507;-71
2022/04/11 04:28:41;;;;;;;5.07;4.43;;;1.30;99.90;;;;;;5013655;28;20478;-72
2022/04/11 04:31:09;;;;;;;9.30;4.33;;;1.40;99.90;;;;;;5017202;28;20477;-72
2022/04/11 04:33:36;;;;;;;6.40;4.50;;;1.40;99.90;;;;;;5032548;28;20802;-70
2022/04/11 04:36:03;;;;;;;7.23;5.23;;;1.40;99.90;;;;;;5033848;28;20449;-70
2022/04/11 04:38:29;;;;;;;10.93;5.97;;;1.40;99.90;;;;;;5026714;28;20515;-71
2022/04/11 04:40:57;;;;;;;6.23;5.50;;;1.50;99.90;;;;;;5031554;28;20512;-71
2022/04/11 04:43:24;;;;;;;9.93;6.40;;;1.50;99.90;;;;;;5033016;28;20457;-71
2022/04/11 04:45:51;;;;;;;10.70;7.23;;;1.50;99.90;;;;;;5019734;28;20454;-71
2022/04/11 04:48:19;;;;;;;12.30;7.63;;;1.50;99.90;;;;;;5014535;28;21005;-71
2022/04/11 04:50:46;;;;;;;15.33;8.87;;;1.40;99.90;;;;;;5024522;28;20511;-71
2022/04/11 04:53:12;;;;;;;22.67;9.30;;;1.40;99.90;;;;;;5032240;28;20953;-71
2022/04/11 04:55:39;;;;;;;20.20;9.67;;;1.30;99.90;;;;;;5028519;28;20449;-71
2022/04/11 04:58:06;;;;;;;21.93;9.27;;;1.30;99.90;;;;;;5016496;28;20597;-71
2022/04/11 05:00:32;;;;;;;22.03;9.53;;;1.30;99.90;;;;;;5023239;28;20457;-71
2022/04/11 05:02:59;;;;;;;11.17;8.50;;;1.30;99.90;;;;;;5025962;28;20888;-71
2022/04/11 05:05:27;;;;;;;13.60;8.17;;;1.30;99.90;;;;;;5016607;28;20924;-71
2022/04/11 05:07:53;;;;;;;21.90;9.73;;;1.30;99.90;;;;;;5013427;28;20457;-71
2022/04/11 05:10:20;;;;;;;17.93;10.10;;;1.40;99.90;;;;;;5015898;28;20485;-71
2022/04/11 05:12:48;;;;;;;16.20;8.60;;;1.40;99.90;;;;;;5013013;28;20455;-71
2022/04/11 05:15:15;;;;;;;14.93;7.83;;;1.40;99.90;;;;;;5027664;28;20464;-71
2022/04/11 05:17:42;;;;;;;15.13;8.27;;;1.40;99.90;;;;;;5013202;28;20451;-71
2022/04/11 05:20:10;;;;;;;10.30;6.77;;;1.50;99.90;;;;;;5013361;28;20472;-71
2022/04/11 05:22:38;;;;;;;10.80;7.30;;;1.50;99.90;;;;;;5013145;28;20815;-71
2022/04/11 05:25:06;;;;;;;10.40;7.17;;;1.50;99.90;;;;;;5020108;28;20461;-71
2022/04/11 05:27:33;;;;;;;8.90;7.17;;;1.60;99.90;;;;;;5015856;28;20935;-71
2022/04/11 05:30:00;;;;;;;9.03;6.27;;;1.60;99.90;;;;;;5025353;28;20543;-71
2022/04/11 05:32:26;;;;;;;10.23;6.10;;;1.70;99.90;;;;;;5030088;28;20484;-71
2022/04/11 05:34:53;;;;;;;12.17;7.13;;;1.70;99.90;;;;;;5012550;28;20450;-71
2022/04/11 05:37:20;;;;;;;11.60;6.70;;;1.70;99.90;;;;;;5012756;28;20827;-71
2022/04/11 05:39:48;;;;;;;8.27;7.00;;;1.80;99.90;;;;;;5013433;28;20470;-75
2022/04/11 05:42:14;;;;;;;16.03;6.43;;;2.00;99.90;;;;;;5013054;28;20939;-75
2022/04/11 05:44:41;;;;;;;8.57;6.50;;;2.10;99.90;;;;;;5031671;28;20516;-75
2022/04/11 05:47:08;;;;;;;10.30;6.87;;;2.30;99.90;;;;;;5031301;28;20519;-75
2022/04/11 05:49:37;;;;;;;14.97;7.57;;;2.40;99.90;;;;;;5019438;28;20545;-75
2022/04/11 05:52:04;;;;;;;9.57;6.90;;;2.70;99.90;;;;;;5012671;28;20818;-75
2022/04/11 05:54:30;;;;;;;17.77;7.50;;;3.10;99.90;;;;;;5012087;28;20860;-75
2022/04/11 05:56:58;;;;;;;15.43;7.13;;;3.50;99.90;;;;;;5019105;28;20449;-75
2022/04/11 05:59:25;;;;;;;12.73;7.73;;;3.80;99.90;;;;;;5022942;28;20525;-75
2022/04/11 06:01:51;;;;;;;13.37;7.33;;;4.30;99.90;;;;;;5013821;28;20512;-74
2022/04/11 06:04:18;;;;;;;9.97;7.17;;;4.70;99.90;;;;;;5012376;28;20512;-74
2022/04/11 06:06:45;;;;;;;11.10;7.07;;;5.10;99.90;;;;;;5026769;28;20454;-76
2022/04/11 06:09:11;;;;;;;13.50;7.50;;;5.50;99.90;;;;;;5020420;28;20899;-74
2022/04/11 06:11:38;;;;;;;13.80;6.43;;;5.90;99.90;;;;;;5012410;28;20486;-74
2022/04/11 06:14:06;;;;;;;10.60;6.60;;;6.40;99.90;;;;;;5019031;28;20499;-74
2022/04/11 06:16:33;;;;;;;11.30;6.90;;;6.80;99.90;;;;;;5029985;28;20468;-74
2022/04/11 06:18:59;;;;;;;11.17;6.60;;;6.90;99.90;;;;;;5031227;28;20478;-75
2022/04/11 06:21:26;;;;;;;10.37;7.40;;;7.10;99.90;;;;;;5031550;28;20450;-74
2022/04/11 06:23:53;;;;;;;9.20;6.80;;;7.30;99.90;;;;;;5031095;28;20454;-74
2022/04/11 06:26:19;;;;;;;9.17;6.37;;;7.50;99.90;;;;;;5017100;28;20450;-74
2022/04/11 06:28:46;;;;;;;12.10;7.10;;;7.70;99.90;;;;;;5026262;28;20477;-74
2022/04/11 06:31:14;;;;;;;15.23;6.80;;;7.80;99.90;;;;;;5031234;28;20485;-73
2022/04/11 06:33:41;;;;;;;11.63;8.30;;;7.90;99.90;;;;;;5031193;28;20962;-73
2022/04/11 06:36:09;;;;;;;12.17;7.33;;;8.00;99.90;;;;;;5032033;28;20506;-72
2022/04/11 06:38:36;;;;;;;13.73;8.10;;;8.20;99.90;;;;;;5012355;28;20532;-73
2022/04/11 06:41:03;;;;;;;14.50;7.90;;;8.70;99.90;;;;;;5016484;28;20445;-73
2022/04/11 06:43:29;;;;;;;10.00;8.37;;;9.10;99.90;;;;;;5030731;28;20468;-73
2022/04/11 06:45:56;;;;;;;11.37;7.90;;;9.20;99.90;;;;;;5023314;28;20504;-73
2022/04/11 06:48:24;;;;;;;16.30;8.60;;;9.40;99.90;;;;;;5018798;28;20539;-72
2022/04/11 06:50:52;;;;;;;9.93;7.63;;;9.50;99.90;;;;;;5014275;28;20568;-72
2022/04/11 06:53:20;;;;;;;17.53;8.23;;;9.50;99.90;;;;;;5031050;28;20850;-72
2022/04/11 06:55:47;;;;;;;11.43;8.07;;;9.50;99.90;;;;;;5020486;28;20458;-72
2022/04/11 06:58:15;;;;;;;12.07;8.40;;;9.60;99.90;;;;;;5016467;28;20482;-74
2022/04/11 07:00:42;;;;;;;10.40;8.10;;;9.80;99.90;;;;;;5018921;28;20485;-74
2022/04/11 07:03:09;;;;;;;14.87;8.57;;;9.50;99.90;;;;;;5014250;28;20539;-73
2022/04/11 07:05:37;;;;;;;12.40;8.90;;;9.30;99.90;;;;;;5022028;28;20842;-74
2022/04/11 07:08:05;;;;;;;12.00;8.53;;;9.20;99.90;;;;;;5028532;28;20457;-73
2022/04/11 07:10:32;;;;;;;12.73;8.60;;;9.10;99.90;;;;;;5014015;28;20509;-74
2022/04/11 07:12:59;;;;;;;10.10;8.83;;;9.20;99.90;;;;;;5022299;28;20534;-74
2022/04/11 07:15:26;;;;;;;11.23;8.90;;;9.10;99.90;;;;;;5011386;28;20493;-74
2022/04/11 07:17:53;;;;;;;11.53;8.77;;;9.20;99.90;;;;;;5014400;28;21001;-74
2022/04/11 07:20:20;;;;;;;12.30;9.00;;;9.10;99.90;;;;;;5010663;28;20878;-74
2022/04/11 07:22:48;;;;;;;12.23;8.13;;;9.00;99.90;;;;;;5011188;28;20457;-74
2022/04/11 07:25:14;;;;;;;12.27;6.80;;;9.10;99.90;;;;;;5009284;28;20458;-73
2022/04/11 07:27:41;;;;;;;19.10;8.40;;;9.10;99.90;;;;;;5012806;28;20474;-72
2022/04/11 07:30:09;;;;;;;11.70;8.60;;;9.00;99.90;;;;;;5023203;28;20492;-73
2022/04/11 07:32:35;;;;;;;15.60;8.90;;;8.90;99.90;;;;;;5030167;28;20457;-72
2022/04/11 07:35:02;;;;;;;11.20;7.73;;;9.10;99.90;;;;;;5025725;28;20512;-73
2022/04/11 07:37:32;;;;;;;9.87;7.67;;;9.20;99.90;;;;;;5009270;28;20474;-73
2022/04/11 07:40:00;;;;;;;10.40;7.90;;;9.20;99.90;;;;;;5009532;28;20477;-73
2022/04/11 07:42:27;;;;;;;7.70;6.63;;;9.30;99.90;;;;;;5010073;28;20546;-74
2022/04/11 07:44:54;;;;;;;9.00;6.80;;;9.40;99.90;;;;;;5011194;28;20470;-72
2022/04/11 07:47:21;;;;;;;9.97;7.27;;;9.20;99.90;;;;;;5020788;28;20453;-73
2022/04/11 07:49:48;;;;;;;12.73;6.73;;;9.30;99.90;;;;;;5012778;28;21002;-73
2022/04/11 07:52:15;;;;;;;8.70;6.97;;;9.30;99.90;;;;;;5015389;28;20499;-73
2022/04/11 07:54:42;;;;;;;7.80;6.83;;;9.40;99.90;;;;;;5032995;28;20969;-73
2022/04/11 07:57:10;;;;;;;9.47;6.87;;;9.50;99.90;;;;;;5032638;28;20544;-72
2022/04/11 07:59:37;;;;;;;11.10;6.60;;;9.60;99.90;;;;;;5017304;28;20478;-72
2022/04/11 08:02:04;;;;;;;12.10;7.47;;;9.50;99.90;;;;;;5025315;28;20445;-74
2022/04/11 08:04:31;;;;;;;11.63;7.50;;;9.40;99.90;;;;;;5024263;28;20453;-74
2022/04/11 08:06:58;;;;;;;11.50;7.43;;;9.30;99.90;;;;;;5028049;28;20457;-75
2022/04/11 08:09:24;;;;;;;36.40;15.63;;;9.20;99.90;;;;;;5019489;28;20478;-75
2022/04/11 08:11:51;;;;;;;9.63;6.73;;;9.10;99.90;;;;;;5032484;28;20481;-75
2022/04/11 08:14:19;;;;;;;10.40;7.60;;;9.30;99.90;;;;;;5031927;28;20445;-76
2022/04/11 08:16:46;;;;;;;16.43;7.13;;;9.40;99.90;;;;;;5033842;28;20441;-76
2022/04/11 08:19:12;;;;;;;14.27;8.00;;;9.50;99.90;;;;;;5015740;28;20477;-76
2022/04/11 08:21:39;;;;;;;10.83;6.83;;;9.70;99.90;;;;;;5014516;28;20477;-76
2022/04/11 08:24:06;;;;;;;9.93;6.90;;;9.90;99.90;;;;;;5013541;28;20454;-76
2022/04/11 08:26:33;;;;;;;10.77;6.30;;;9.80;99.90;;;;;;5019453;28;20485;-75
2022/04/11 08:29:00;;;;;;;9.50;6.10;;;10.00;99.90;;;;;;5033422;28;20595;-76
2022/04/11 08:31:28;;;;;;;7.87;6.07;;;10.10;99.90;;;;;;5033372;28;21022;-75
2022/04/11 08:33:55;;;;;;;7.67;6.50;;;10.10;99.90;;;;;;5033419;28;20487;-76
2022/04/11 08:36:21;;;;;;;12.10;6.97;;;10.10;99.90;;;;;;5022911;28;20441;-76
2022/04/11 08:38:48;;;;;;;9.83;6.40;;;10.00;99.90;;;;;;5029718;28;20504;-75
2022/04/11 08:41:17;;;;;;;11.33;6.57;;;10.00;99.90;;;;;;5030988;28;20453;-76
2022/04/11 08:43:44;;;;;;;7.80;5.80;;;10.30;99.90;;;;;;5019650;28;20485;-76
2022/04/11 08:46:13;;;;;;;10.30;6.13;;;10.70;99.90;;;;;;5015293;28;20462;-75
2022/04/11 08:48:42;;;;;;;8.23;5.87;;;10.80;99.90;;;;;;5033448;28;20473;-76
2022/04/11 08:51:09;;;;;;;10.07;6.00;;;10.60;99.90;;;;;;5032886;28;20500;-75
2022/04/11 08:53:37;;;;;;;6.23;5.50;;;10.50;99.90;;;;;;5032831;28;20515;-76
2022/04/11 08:56:04;;;;;;;8.97;5.80;;;10.50;99.90;;;;;;5025612;28;20457;-76
2022/04/11 08:58:30;;;;;;;10.23;6.00;;;10.40;99.90;;;;;;5033311;28;20477;-76
2022/04/11 09:00:57;;;;;;;9.47;6.07;;;10.50;99.90;;;;;;5031756;28;20449;-75
2022/04/11 09:03:24;;;;;;;8.40;6.17;;;10.50;99.90;;;;;;5031675;28;20843;-76
2022/04/11 09:06:06;;;;;;;7.63;5.60;;;10.50;99.90;;;;;;5032342;28;21015;-76
2022/04/11 09:08:40;;;;;;;6.07;5.47;;;10.80;99.90;;;;;;5024837;28;21053;-76
2022/04/11 09:11:07;;;;;;;7.40;5.90;;;10.90;99.90;;;;;;5027914;28;20492;-76
2022/04/11 09:13:48;;;;;;;6.37;5.60;;;11.10;99.90;;;;;;5012237;28;20450;-76
2022/04/11 09:16:15;;;;;;;11.33;5.93;;;11.00;99.90;;;;;;5013149;28;20441;-76
2022/04/11 09:18:49;;;;;;;9.53;6.10;;;10.90;99.90;;;;;;5021657;28;20604;-76
2022/04/11 09:21:17;;;;;;;7.80;5.90;;;10.90;99.90;;;;;;5028525;28;21967;-75
2022/04/11 09:23:44;;;;;;;11.03;6.90;;;11.10;99.90;;;;;;5030791;28;20457;-76
2022/04/11 09:26:22;;;;;;;13.83;5.80;;;11.40;99.90;;;;;;5030891;28;20462;-76
2022/04/11 09:29:03;;;;;;;7.70;5.90;;;11.70;99.90;;;;;;5031958;28;20500;-77
2022/04/11 09:31:31;;;;;;;8.23;6.10;;;12.00;99.90;;;;;;5025483;28;20568;-76
2022/04/11 09:33:58;;;;;;;10.00;5.90;;;12.00;99.90;;;;;;5011292;28;20881;-77
2022/04/11 09:36:44;;;;;;;8.57;5.70;;;11.90;99.90;;;;;;5011879;28;20446;-77
2022/04/11 09:39:11;;;;;;;8.00;6.07;;;11.90;99.90;;;;;;5011985;28;20540;-77
2022/04/11 09:41:43;;;;;;;9.10;6.10;;;11.90;99.90;;;;;;5022954;28;20503;-76
2022/04/11 09:44:21;;;;;;;5.90;5.23;;;11.90;99.90;;;;;;5013385;28;20457;-76
2022/04/11 09:46:48;;;;;;;7.43;5.90;;;11.90;99.90;;;;;;5015205;28;20454;-76
2022/04/11 09:49:15;;;;;;;6.47;5.53;;;12.00;99.90;;;;;;5024944;28;20474;-76
2022/04/11 09:52:02;;;;;;;6.77;5.40;;;12.10;99.90;;;;;;5012311;28;20490;-76
2022/04/11 09:54:30;;;;;;;8.87;5.90;;;12.40;99.90;;;;;;5018336;28;20928;-76
2022/04/11 09:56:59;;;;;;;7.53;4.90;;;12.50;99.90;;;;;;5031732;28;20457;-76
2022/04/11 09:59:26;;;;;;;7.27;5.70;;;12.60;99.90;;;;;;5031795;28;20472;-76
2022/04/11 10:01:56;;;;;;;6.70;5.63;;;12.70;99.90;;;;;;5024152;28;20446;-75
2022/04/11 10:04:23;;;;;;;9.33;5.17;;;12.80;99.90;;;;;;5026738;28;20457;-76
2022/04/11 10:06:50;;;;;;;5.53;4.60;;;13.10;99.90;;;;;;5019818;28;20831;-76
2022/04/11 10:09:21;;;;;;;5.37;4.87;;;13.00;99.90;;;;;;5022919;28;20474;-76
2022/04/11 10:11:49;;;;;;;9.00;5.07;;;12.70;99.90;;;;;;5012651;28;20489;-76
2022/04/11 10:14:23;;;;;;;9.43;5.23;;;12.40;99.90;;;;;;5011347;28;20865;-76
2022/04/11 10:16:50;;;;;;;8.60;4.33;;;12.50;99.90;;;;;;5012482;28;20454;-76
2022/04/11 10:19:22;;;;;;;4.90;4.43;;;12.50;99.90;;;;;;5011548;28;20470;-76
2022/04/11 10:21:49;;;;;;;5.90;4.73;;;12.60;99.90;;;;;;5027143;28;20445;-76
2022/04/11 10:24:23;;;;;;;5.17;4.30;;;12.70;99.90;;;;;;5031341;28;20464;-76
2022/04/11 10:26:53;;;;;;;6.87;4.87;;;13.00;99.90;;;;;;5021362;28;20817;-74
2022/04/11 10:29:33;;;;;;;10.80;4.57;;;13.40;99.90;;;;;;5012183;28;20482;-74
2022/04/11 10:32:07;;;;;;;6.27;4.63;;;13.50;99.90;;;;;;5027425;28;20480;-75
2022/04/11 10:34:48;;;;;;;7.53;4.87;;;13.30;99.90;;;;;;5050729;28;20513;-74
2022/04/11 10:37:15;;;;;;;4.40;4.00;;;13.20;99.90;;;;;;5022777;28;20958;-75
2022/04/11 10:39:44;;;;;;;7.07;4.30;;;13.30;99.90;;;;;;5029484;28;20481;-75
2022/04/11 10:42:27;;;;;;;12.07;4.53;;;13.00;99.90;;;;;;5031693;28;20556;-75
2022/04/11 10:44:56;;;;;;;5.50;3.80;;;13.10;99.90;;;;;;5030455;28;20862;-75
2022/04/11 10:47:48;;;;;;;5.30;4.13;;;13.40;99.90;;;;;;5030802;28;20457;-75
2022/04/11 10:50:23;;;;;;;7.50;4.90;;;13.30;99.90;;;;;;5031630;28;20481;-75
2022/04/11 10:53:27;;;;;;;5.63;4.50;;;13.10;99.90;;;;;;5011679;28;20572;-74
2022/04/11 10:56:03;;;;;;;4.93;4.40;;;13.10;99.90;;;;;;5015564;28;20496;-75
2022/04/11 10:58:48;;;;;;;7.83;4.60;;;13.20;99.90;;;;;;5011828;28;20477;-75
2022/04/11 11:01:36;;;;;;;7.05;4.57;;;13.30;99.90;;;;;;5018310;28;20452;-73
2022/04/11 11:04:18;;;;;;;9.23;4.67;;;13.50;99.90;;;;;;5028278;28;20257;-73
2022/04/11 11:06:45;;;;;;;5.03;4.53;;;13.90;99.90;;;;;;5031270;28;20449;-74
2022/04/11 11:09:16;;;;;;;5.17;4.77;;;13.90;99.90;;;;;;5020453;28;20570;-72
2022/04/11 11:11:46;;;;;;;9.77;5.23;;;13.80;99.90;;;;;;5025675;28;20607;-72
2022/04/11 11:14:40;;;;;;;8.83;4.93;;;13.90;99.90;;;;;;5029377;28;20481;-72
2022/04/11 11:17:10;;;;;;;7.23;4.87;;;14.10;99.90;;;;;;5031337;28;20457;-72
2022/04/11 11:20:05;;;;;;;4.93;4.03;;;14.40;99.90;;;;;;5030668;28;20480;-72
2022/04/11 11:22:34;;;;;;;6.50;4.67;;;14.70;99.90;;;;;;5014596;28;20454;-72
2022/04/11 11:25:18;;;;;;;5.40;4.40;;;15.00;99.90;;;;;;5015453;28;20439;-73
2022/04/11 11:27:49;;;;;;;8.83;3.67;;;15.00;99.90;;;;;;5029394;28;20453;-72
2022/04/11 11:30:16;;;;;;;7.20;4.27;;;15.00;99.90;;;;;;5022986;28;20489;-73
2022/04/11 11:32:43;;;;;;;5.10;4.00;;;15.00;99.90;;;;;;5011312;28;20460;-72
2022/04/11 11:35:11;;;;;;;5.77;3.80;;;14.70;99.90;;;;;;5010714;28;21072;-72
2022/04/11 11:37:38;;;;;;;4.90;3.67;;;14.60;99.90;;;;;;5011539;28;20805;-72
2022/04/11 11:40:06;;;;;;;5.82;3.90;;;14.70;99.90;;;;;;5010350;28;20450;-73
2022/04/11 11:42:37;;;;;;;6.97;3.60;;;14.70;99.90;;;;;;5009562;28;20463;-74
2022/04/11 11:45:07;;;;;;;8.53;4.20;;;14.70;99.80;;;;;;5009506;28;20214;-73
2022/04/11 11:47:34;;;;;;;5.07;4.57;;;15.00;99.90;;;;;;5022485;28;20456;-73
2022/04/11 11:50:06;;;;;;;4.90;3.90;;;15.30;99.40;;;;;;5029381;28;20856;-73
2022/04/11 11:52:33;;;;;;;6.03;4.03;;;15.60;99.90;;;;;;5022739;28;20459;-73
2022/04/11 11:55:02;;;;;;;5.47;4.00;;;15.80;99.90;;;;;;5009414;28;20443;-73
2022/04/11 11:57:30;;;;;;;3.80;3.20;;;16.00;97.40;;;;;;5013088;28;20425;-73
2022/04/11 11:59:59;;;;;;;20.30;6.77;;;16.30;99.90;;;;;;5029426;28;20472;-73
2022/04/11 12:05:18;;;;;;;7.03;3.47;;;16.00;98.10;;;;;;5028965;28;20995;-72
2022/04/11 12:07:45;;;;;;;8.80;4.53;;;15.70;96.70;;;;;;5030300;28;20512;-73
2022/04/11 12:10:12;;;;;;;4.63;4.17;;;15.60;97.20;;;;;;5014094;28;20505;-73
2022/04/11 12:12:39;;;;;;;3.90;3.60;;;15.50;97.60;;;;;;5014040;28;20448;-74
2022/04/11 12:15:08;;;;;;;4.53;3.90;;;15.60;97.40;;;;;;5028637;28;20428;-73
2022/04/11 12:17:37;;;;;;;4.43;4.03;;;15.80;97.00;;;;;;5016672;28;21117;-73
2022/04/11 12:20:22;;;;;;;4.33;3.60;;;16.20;98.90;;;;;;5024918;28;20472;-73
2022/04/11 12:23:04;;;;;;;11.07;5.70;;;16.60;98.70;;;;;;5010504;28;20433;-73
2022/04/11 12:25:33;;;;;;;5.83;3.57;;;16.70;97.10;;;;;;5026217;28;20441;-72
2022/04/11 12:28:17;;;;;;;5.17;4.40;;;16.40;95.00;;;;;;5026547;28;20847;-72
2022/04/11 12:30:46;;;;;;;8.00;3.90;;;15.60;95.20;;;;;;5013284;28;20423;-72
2022/04/11 12:33:34;;;;;;;20.17;6.60;;;15.50;97.50;;;;;;5029921;28;20539;-73
2022/04/11 12:36:06;;;;;;;3.67;3.25;;;15.80;98.50;;;;;;5013801;28;20451;-71
2022/04/11 12:38:43;;;;;;;5.30;3.93;;;16.20;97.30;;;;;;5011192;28;20602;-74
2022/04/11 12:41:29;;;;;;;4.40;4.00;;;16.30;97.80;;;;;;5023710;28;20483;-74
2022/04/11 12:44:10;;;;;;;5.60;3.50;;;16.20;95.80;;;;;;5016967;28;20520;-74
2022/04/11 12:46:40;;;;;;;5.00;4.10;;;16.30;96.90;;;;;;5017805;28;20904;-74
2022/04/11 12:49:10;;;;;;;3.80;3.20;;;16.10;95.10;;;;;;5032686;28;20473;-75
2022/04/11 12:51:38;;;;;;;3.93;3.63;;;15.70;95.90;;;;;;5032935;28;20436;-74
2022/04/11 12:54:07;;;;;;;11.43;3.57;;;15.70;96.40;;;;;;5022045;28;20436;-74
2022/04/11 12:56:38;;;;;;;6.10;4.17;;;15.70;96.20;;;;;;5032058;28;20454;-74
2022/04/11 12:59:05;;;;;;;7.53;3.87;;;15.50;96.10;;;;;;5031995;28;20827;-74
2022/04/11 13:01:55;;;;;;;6.53;4.07;;;15.80;96.00;;;;;;5019775;28;20440;-74